Time;durP1;ratioP1;P1;durP2;ratioP2;P2;SDS_P1;SDS_P2;PMS_P1;PMS_P2;Temp;Humidity;BMP_temperature;BMP_pressure;BME280_temperature;BME280_humidity;BME280_pressure;Samples;Min_cycle;Max_cycle;Signal;HPM_P1;HPM_P2
2021/06/28 00:00:31;;;;;;;6.73;6.13;;;20.60;99.90;;;;;;5053142;28;20777;-73
2021/06/28 00:02:58;;;;;;;5.73;5.20;;;20.60;99.90;;;;;;5070865;28;20540;-73
2021/06/28 00:05:24;;;;;;;6.47;5.83;;;20.50;99.90;;;;;;5071139;28;20174;-75
2021/06/28 00:07:50;;;;;;;5.63;5.10;;;20.50;99.90;;;;;;5070900;28;20890;-73
2021/06/28 00:10:22;;;;;;;7.00;5.60;;;20.40;99.90;;;;;;5070911;28;20405;-74
2021/06/28 00:12:48;;;;;;;7.53;5.63;;;20.40;99.90;;;;;;5051030;28;20282;-73
2021/06/28 00:15:17;;;;;;;5.17;4.67;;;20.40;99.90;;;;;;5051149;28;20398;-75
2021/06/28 00:17:44;;;;;;;8.10;6.50;;;20.40;99.90;;;;;;5051241;28;20421;-75
2021/06/28 00:20:11;;;;;;;6.33;5.83;;;20.40;99.90;;;;;;5051028;28;20497;-75
2021/06/28 00:22:36;;;;;;;8.07;5.53;;;20.40;99.90;;;;;;5050604;28;20450;-75
2021/06/28 00:25:08;;;;;;;4.87;4.47;;;20.30;99.90;;;;;;5065256;28;20419;-73
2021/06/28 00:27:35;;;;;;;6.77;6.17;;;20.30;99.90;;;;;;5071032;28;20871;-76
2021/06/28 00:30:00;;;;;;;6.13;5.60;;;20.30;99.90;;;;;;5071138;28;20829;-73
2021/06/28 00:32:26;;;;;;;7.10;6.50;;;20.20;99.90;;;;;;5071129;28;20453;-73
2021/06/28 00:34:51;;;;;;;6.03;5.47;;;20.20;99.90;;;;;;5070952;28;20630;-73
2021/06/28 00:37:16;;;;;;;5.77;5.27;;;20.20;99.90;;;;;;5070692;28;20166;-73
2021/06/28 00:39:42;;;;;;;5.97;5.47;;;20.20;99.90;;;;;;5070885;28;20569;-73
2021/06/28 00:42:08;;;;;;;7.37;6.77;;;20.10;99.90;;;;;;5070673;28;20324;-73
2021/06/28 00:44:33;;;;;;;7.73;6.77;;;20.10;99.90;;;;;;5070886;28;20171;-73
2021/06/28 00:46:59;;;;;;;7.10;6.40;;;20.10;99.90;;;;;;5070733;28;20246;-75
2021/06/28 00:49:24;;;;;;;6.13;5.60;;;20.00;99.90;;;;;;5070683;28;20177;-73
2021/06/28 00:51:56;;;;;;;6.50;6.00;;;20.00;99.90;;;;;;5052313;28;20187;-74
2021/06/28 00:54:21;;;;;;;7.10;6.43;;;20.00;99.90;;;;;;5067662;28;20501;-73
2021/06/28 00:56:47;;;;;;;7.37;5.70;;;20.00;99.90;;;;;;5050593;28;20411;-73
2021/06/28 00:59:16;;;;;;;6.10;5.60;;;20.00;99.90;;;;;;5050693;28;20176;-74
2021/06/28 01:01:41;;;;;;;6.93;6.33;;;20.00;99.90;;;;;;5050375;28;20188;-74
2021/06/28 01:04:07;;;;;;;6.50;5.90;;;20.00;99.90;;;;;;5050776;28;20763;-73
2021/06/28 01:06:33;;;;;;;7.30;5.43;;;19.90;99.90;;;;;;5050045;28;20195;-73
2021/06/28 01:08:58;;;;;;;5.80;5.30;;;19.90;99.90;;;;;;5052369;28;20174;-73
2021/06/28 01:11:24;;;;;;;6.07;5.57;;;19.90;99.90;;;;;;5054208;28;20198;-73
2021/06/28 01:13:50;;;;;;;6.20;5.70;;;20.00;99.90;;;;;;5054272;28;20707;-75
2021/06/28 01:16:17;;;;;;;6.30;5.80;;;19.90;99.90;;;;;;5036251;28;20171;-74
2021/06/28 01:18:43;;;;;;;6.20;5.63;;;19.90;99.90;;;;;;5054461;28;20409;-74
2021/06/28 01:21:10;;;;;;;7.67;5.30;;;19.90;99.90;;;;;;5053913;28;20906;-74
2021/06/28 01:23:36;;;;;;;5.80;5.30;;;19.90;99.90;;;;;;5054010;28;20240;-73
2021/06/28 01:26:08;;;;;;;6.57;6.00;;;19.90;99.90;;;;;;5054137;28;20536;-73
2021/06/28 01:28:33;;;;;;;6.43;5.33;;;19.80;99.90;;;;;;5054274;28;20535;-73
2021/06/28 01:31:00;;;;;;;6.60;6.00;;;19.80;99.90;;;;;;5054131;28;20412;-73
2021/06/28 01:33:27;;;;;;;6.27;5.70;;;19.80;99.90;;;;;;5054057;28;20172;-73
2021/06/28 01:35:53;;;;;;;5.77;5.27;;;19.80;99.90;;;;;;5053746;28;20416;-74
2021/06/28 01:38:18;;;;;;;6.10;5.50;;;19.80;99.90;;;;;;5054121;28;20408;-74
2021/06/28 01:40:45;;;;;;;7.17;5.77;;;19.80;99.90;;;;;;5053724;28;20160;-73
2021/06/28 01:43:11;;;;;;;4.73;4.33;;;19.80;99.90;;;;;;5053522;28;20179;-73
2021/06/28 01:45:37;;;;;;;6.23;5.73;;;19.70;99.90;;;;;;5053682;28;20478;-74
2021/06/28 01:48:03;;;;;;;6.00;5.53;;;19.80;99.90;;;;;;5052094;28;20469;-74
2021/06/28 01:50:30;;;;;;;6.43;5.83;;;19.80;99.90;;;;;;5053505;28;20463;-73
2021/06/28 01:52:57;;;;;;;6.40;5.80;;;19.70;99.90;;;;;;5053592;28;20443;-74
2021/06/28 01:55:23;;;;;;;5.87;5.27;;;19.70;99.90;;;;;;5053573;28;20442;-73
2021/06/28 01:58:03;;;;;;;5.80;5.40;;;19.70;99.90;;;;;;5053173;28;20489;-73
2021/06/28 02:00:36;;;;;;;6.67;6.07;;;19.70;99.90;;;;;;5052157;28;20402;-73
2021/06/28 02:03:12;;;;;;;5.80;5.30;;;19.70;99.90;;;;;;5053309;28;20450;-73
2021/06/28 02:05:47;;;;;;;5.50;5.10;;;19.70;99.90;;;;;;5053254;28;20408;-73
2021/06/28 02:08:16;;;;;;;6.50;5.50;;;19.60;99.90;;;;;;5053128;28;20411;-73
2021/06/28 02:10:48;;;;;;;6.60;5.80;;;19.60;99.90;;;;;;5052714;28;20852;-73
2021/06/28 02:13:14;;;;;;;6.50;5.90;;;19.50;99.90;;;;;;5052863;28;20945;-73
2021/06/28 02:15:39;;;;;;;6.37;5.80;;;19.50;99.90;;;;;;5053060;28;20419;-73
2021/06/28 02:18:07;;;;;;;6.50;5.40;;;19.50;99.90;;;;;;5052851;28;20410;-73
2021/06/28 02:20:32;;;;;;;6.60;6.00;;;19.50;99.90;;;;;;5052101;28;20180;-73
2021/06/28 02:23:10;;;;;;;6.27;5.33;;;19.50;99.90;;;;;;5052432;28;20528;-72
2021/06/28 02:25:36;;;;;;;6.27;5.60;;;19.40;99.90;;;;;;5052860;28;20328;-72
2021/06/28 02:28:01;;;;;;;6.30;5.80;;;19.40;99.90;;;;;;5052614;28;20544;-73
2021/06/28 02:30:27;;;;;;;6.80;5.90;;;19.40;99.90;;;;;;5052719;28;20175;-73
2021/06/28 02:32:52;;;;;;;5.57;5.17;;;19.40;99.90;;;;;;5052482;28;20606;-73
2021/06/28 02:35:18;;;;;;;7.87;6.80;;;19.40;99.90;;;;;;5052685;28;20190;-73
2021/06/28 02:37:43;;;;;;;6.63;6.03;;;19.30;99.90;;;;;;5052326;28;20188;-73
2021/06/28 02:40:12;;;;;;;6.50;6.00;;;19.30;99.90;;;;;;5052826;28;20171;-73
2021/06/28 02:42:39;;;;;;;6.63;5.93;;;19.30;99.90;;;;;;5052417;28;20221;-72
2021/06/28 02:45:05;;;;;;;5.83;5.37;;;19.30;99.90;;;;;;5052488;28;20414;-73
2021/06/28 02:47:31;;;;;;;6.60;6.00;;;19.30;99.90;;;;;;5034367;28;20452;-72
2021/06/28 02:49:56;;;;;;;7.03;6.53;;;19.30;99.90;;;;;;5052475;28;20466;-75
2021/06/28 02:52:22;;;;;;;6.70;5.93;;;19.30;99.90;;;;;;5052646;28;20650;-73
2021/06/28 02:54:47;;;;;;;6.67;6.00;;;19.20;99.90;;;;;;5052506;28;20253;-73
2021/06/28 02:57:13;;;;;;;6.67;6.07;;;19.20;99.90;;;;;;5052369;28;20812;-73
2021/06/28 02:59:38;;;;;;;6.10;5.53;;;19.20;99.90;;;;;;5052349;28;20178;-73
2021/06/28 03:02:04;;;;;;;7.27;6.57;;;19.20;99.90;;;;;;5052387;28;20193;-73
2021/06/28 03:04:30;;;;;;;6.93;6.10;;;19.10;99.90;;;;;;5052279;28;20666;-73
2021/06/28 03:06:55;;;;;;;6.13;5.63;;;19.10;99.90;;;;;;5051763;28;20194;-73
2021/06/28 03:09:20;;;;;;;6.73;6.07;;;19.10;99.90;;;;;;5050884;28;20312;-73
2021/06/28 03:11:46;;;;;;;6.93;6.27;;;19.00;99.90;;;;;;5052025;28;20546;-73
2021/06/28 03:14:12;;;;;;;6.53;5.83;;;19.00;99.90;;;;;;5052130;28;20245;-73
2021/06/28 03:16:37;;;;;;;7.07;6.37;;;19.00;99.90;;;;;;5051852;28;20538;-73
2021/06/28 03:19:03;;;;;;;6.83;6.23;;;19.00;99.90;;;;;;5051878;28;20173;-73
2021/06/28 03:21:28;;;;;;;6.87;6.17;;;19.00;99.90;;;;;;5051605;28;20240;-73
2021/06/28 03:23:54;;;;;;;7.80;7.20;;;19.00;99.90;;;;;;5051636;28;20282;-73
2021/06/28 03:26:19;;;;;;;6.50;5.90;;;19.10;99.90;;;;;;5051568;28;20194;-73
2021/06/28 03:28:45;;;;;;;6.03;5.53;;;19.10;99.90;;;;;;5051801;28;20178;-73
2021/06/28 03:31:11;;;;;;;6.43;5.70;;;19.10;99.90;;;;;;5051642;28;20194;-73
2021/06/28 03:33:37;;;;;;;7.20;6.50;;;19.10;99.90;;;;;;5051588;28;20174;-73
2021/06/28 03:36:04;;;;;;;8.33;6.60;;;19.10;99.90;;;;;;5051464;28;20625;-73
2021/06/28 03:38:29;;;;;;;7.10;6.40;;;19.10;99.90;;;;;;5051563;28;20409;-73
2021/06/28 03:40:55;;;;;;;7.70;7.03;;;19.10;99.90;;;;;;5051204;28;20408;-73
2021/06/28 03:43:20;;;;;;;5.93;5.43;;;19.20;99.90;;;;;;5051386;28;20193;-73
2021/06/28 03:45:47;;;;;;;6.47;5.87;;;19.20;99.90;;;;;;5051220;28;20195;-73
2021/06/28 03:48:13;;;;;;;6.00;5.40;;;19.20;99.90;;;;;;5050215;28;20579;-73
2021/06/28 03:50:40;;;;;;;6.20;5.60;;;19.20;99.90;;;;;;5051623;28;20420;-73
2021/06/28 03:53:06;;;;;;;5.87;5.30;;;19.30;99.90;;;;;;5051577;28;20473;-73
2021/06/28 03:55:31;;;;;;;5.53;5.13;;;19.30;99.90;;;;;;5051956;28;20834;-73
2021/06/28 03:57:57;;;;;;;6.50;6.00;;;19.40;99.90;;;;;;5051485;28;20181;-74
2021/06/28 04:00:25;;;;;;;6.50;5.90;;;19.40;99.90;;;;;;5051438;28;20168;-73
2021/06/28 04:02:52;;;;;;;6.70;6.10;;;19.50;99.90;;;;;;5051231;28;20753;-74
2021/06/28 04:05:20;;;;;;;6.67;6.10;;;19.50;99.90;;;;;;5051059;28;20412;-74
2021/06/28 04:07:47;;;;;;;6.10;5.60;;;19.60;99.90;;;;;;5051745;28;20456;-74
2021/06/28 04:10:14;;;;;;;5.87;5.37;;;19.70;99.90;;;;;;5051685;28;20406;-73
2021/06/28 04:12:40;;;;;;;5.90;5.40;;;19.70;99.90;;;;;;5051074;28;20479;-74
2021/06/28 04:15:11;;;;;;;7.03;5.63;;;19.90;99.90;;;;;;5051228;28;20406;-73
2021/06/28 04:17:42;;;;;;;8.73;6.33;;;20.10;99.90;;;;;;5051122;28;20170;-73
2021/06/28 04:20:09;;;;;;;7.40;5.10;;;20.90;99.90;;;;;;5051166;28;20512;-73
2021/06/28 04:22:36;;;;;;;6.00;5.50;;;22.30;99.90;;;;;;5050863;28;20451;-73
2021/06/28 04:25:04;;;;;;;5.93;5.30;;;23.10;99.90;;;;;;5051312;28;20460;-73
2021/06/28 04:27:30;;;;;;;6.03;5.43;;;23.40;99.90;;;;;;5050823;28;20569;-73
2021/06/28 04:29:55;;;;;;;5.63;5.17;;;24.00;99.90;;;;;;5051177;28;20497;-73
2021/06/28 04:32:21;;;;;;;6.20;5.63;;;24.70;99.90;;;;;;5050852;28;20207;-73
2021/06/28 04:34:46;;;;;;;6.43;5.93;;;25.50;99.90;;;;;;5033262;28;20171;-74
2021/06/28 04:37:12;;;;;;;4.30;4.00;;;26.30;99.90;;;;;;5051034;28;20177;-73
2021/06/28 04:39:39;;;;;;;4.63;4.23;;;25.90;99.90;;;;;;5051088;28;20221;-73
2021/06/28 04:42:06;;;;;;;5.90;4.80;;;26.00;99.90;;;;;;5050887;28;20772;-73
2021/06/28 04:44:31;;;;;;;5.20;4.70;;;25.60;99.90;;;;;;5053964;28;20423;-73
2021/06/28 04:46:57;;;;;;;4.93;4.43;;;25.80;99.90;;;;;;5054749;28;20547;-73
2021/06/28 04:49:22;;;;;;;4.13;3.83;;;25.50;99.90;;;;;;5055917;28;20213;-74
2021/06/28 04:51:48;;;;;;;5.00;4.60;;;25.50;99.90;;;;;;5055472;28;20273;-74
2021/06/28 04:54:13;;;;;;;4.30;4.00;;;24.90;99.90;;;;;;5054947;28;20188;-73
2021/06/28 04:56:39;;;;;;;4.43;4.07;;;24.80;99.90;;;;;;5054844;28;20207;-74
2021/06/28 04:59:04;;;;;;;5.47;4.87;;;25.00;99.90;;;;;;5054940;28;20723;-73
2021/06/28 05:01:30;;;;;;;6.87;4.40;;;24.90;99.90;;;;;;5054684;28;20189;-73
2021/06/28 05:03:55;;;;;;;9.83;5.87;;;24.50;99.90;;;;;;5054847;28;20181;-73
2021/06/28 05:06:21;;;;;;;5.30;4.80;;;24.90;99.90;;;;;;5055110;28;20226;-73
2021/06/28 05:08:46;;;;;;;4.60;4.13;;;24.60;99.90;;;;;;5055014;28;20635;-75
2021/06/28 05:11:12;;;;;;;4.20;3.90;;;25.40;99.80;;;;;;5054677;28;20193;-73
2021/06/28 05:13:37;;;;;;;4.17;3.87;;;25.50;99.50;;;;;;5054874;28;20224;-73
2021/06/28 05:16:03;;;;;;;5.53;4.83;;;26.20;98.10;;;;;;5054567;28;20538;-73
2021/06/28 05:18:28;;;;;;;4.50;4.10;;;25.90;98.50;;;;;;5054648;28;20174;-74
2021/06/28 05:20:54;;;;;;;5.07;4.00;;;27.10;96.90;;;;;;5054438;28;20167;-73
2021/06/28 05:23:20;;;;;;;4.83;4.43;;;27.40;96.00;;;;;;5054453;28;20679;-74
2021/06/28 05:25:46;;;;;;;6.73;4.30;;;27.40;95.40;;;;;;5054690;28;20202;-74
2021/06/28 05:28:11;;;;;;;6.07;4.40;;;26.60;95.40;;;;;;5054179;28;20495;-73
2021/06/28 05:30:37;;;;;;;5.37;4.60;;;26.90;95.70;;;;;;5054579;28;20524;-73
2021/06/28 05:33:03;;;;;;;4.20;3.77;;;27.60;94.40;;;;;;5054108;28;20233;-73
2021/06/28 05:35:28;;;;;;;7.20;4.77;;;28.20;93.20;;;;;;5054229;28;20175;-73
2021/06/28 05:37:54;;;;;;;4.60;4.20;;;28.50;92.60;;;;;;5054139;28;20167;-74
2021/06/28 05:40:19;;;;;;;5.10;3.90;;;28.30;92.30;;;;;;5054103;28;20177;-73
2021/06/28 05:42:46;;;;;;;4.63;4.23;;;28.40;92.20;;;;;;5053955;28;20187;-73
2021/06/28 05:45:12;;;;;;;5.70;4.43;;;28.30;91.90;;;;;;5054000;28;20651;-74
2021/06/28 05:47:38;;;;;;;3.93;3.63;;;28.60;90.70;;;;;;5053886;28;20510;-73
2021/06/28 05:50:05;;;;;;;4.20;3.90;;;28.00;91.70;;;;;;5053967;28;20174;-73
2021/06/28 05:52:31;;;;;;;5.63;4.30;;;28.20;91.40;;;;;;5054070;28;20721;-73
2021/06/28 05:54:57;;;;;;;4.80;4.43;;;28.80;90.60;;;;;;5052785;28;20398;-73
2021/06/28 05:57:24;;;;;;;4.37;3.80;;;28.10;91.00;;;;;;5054233;28;20171;-73
2021/06/28 05:59:51;;;;;;;4.73;4.33;;;27.90;91.40;;;;;;5053771;28;20177;-74
2021/06/28 06:02:18;;;;;;;4.60;4.20;;;28.10;90.40;;;;;;5053605;28;20420;-74
2021/06/28 06:04:44;;;;;;;4.93;4.43;;;27.90;91.10;;;;;;5053607;28;20910;-74
2021/06/28 06:07:10;;;;;;;5.33;4.90;;;27.90;92.50;;;;;;5053538;28;20459;-73
2021/06/28 06:09:36;;;;;;;4.27;3.93;;;28.30;91.10;;;;;;5053642;28;20397;-73
2021/06/28 06:12:02;;;;;;;5.60;4.33;;;29.20;90.30;;;;;;5053534;28;20273;-73
2021/06/28 06:14:27;;;;;;;4.80;4.37;;;28.40;90.50;;;;;;5053368;28;20163;-73
2021/06/28 06:16:53;;;;;;;4.13;3.70;;;28.90;89.20;;;;;;5053492;28;20201;-74
2021/06/28 06:19:18;;;;;;;7.03;4.70;;;29.00;88.70;;;;;;5053401;28;20182;-72
2021/06/28 06:21:44;;;;;;;4.03;3.63;;;29.50;86.80;;;;;;5053391;28;20240;-73
2021/06/28 06:24:10;;;;;;;3.70;3.50;;;28.90;88.30;;;;;;5053292;28;20254;-73
2021/06/28 06:26:36;;;;;;;8.00;3.70;;;30.00;86.20;;;;;;5053039;28;20567;-72
2021/06/28 06:29:02;;;;;;;4.30;3.90;;;30.30;84.90;;;;;;5053560;28;20495;-73
2021/06/28 06:31:27;;;;;;;4.97;4.10;;;29.80;85.30;;;;;;5053220;28;20732;-73
2021/06/28 06:33:53;;;;;;;4.83;4.33;;;29.80;86.20;;;;;;5053162;28;20501;-73
2021/06/28 06:36:19;;;;;;;5.10;4.60;;;29.60;88.20;;;;;;5052976;28;20659;-73
2021/06/28 06:38:44;;;;;;;5.87;4.43;;;30.70;83.00;;;;;;5053256;28;20175;-74
2021/06/28 06:41:10;;;;;;;4.80;4.40;;;31.70;80.50;;;;;;5053100;28;20432;-73
2021/06/28 06:43:36;;;;;;;5.70;4.97;;;31.30;79.60;;;;;;5052834;28;20171;-73
2021/06/28 06:46:02;;;;;;;7.60;6.07;;;30.40;83.60;;;;;;5059566;28;20311;-74
2021/06/28 06:48:28;;;;;;;5.33;4.47;;;29.40;86.10;;;;;;5072929;28;20166;-73
2021/06/28 06:50:53;;;;;;;6.90;4.90;;;30.40;84.20;;;;;;5072937;28;20400;-73
2021/06/28 06:53:19;;;;;;;5.37;4.30;;;30.40;83.30;;;;;;5072790;28;20228;-73
2021/06/28 06:55:45;;;;;;;6.33;5.33;;;30.50;84.10;;;;;;5072806;28;20158;-73
2021/06/28 06:58:11;;;;;;;5.10;3.93;;;31.00;81.20;;;;;;5072466;28;20457;-73
2021/06/28 07:00:39;;;;;;;4.47;4.10;;;30.60;82.20;;;;;;5072783;28;20494;-74
2021/06/28 07:03:05;;;;;;;5.20;4.70;;;30.60;82.90;;;;;;5072666;28;20519;-73
2021/06/28 07:05:31;;;;;;;9.70;5.27;;;30.80;80.50;;;;;;5072757;28;20459;-73
2021/06/28 07:07:56;;;;;;;5.20;4.80;;;32.00;81.40;;;;;;5072152;28;20925;-73
2021/06/28 07:10:23;;;;;;;6.00;5.40;;;33.40;75.80;;;;;;5072399;28;20174;-73
2021/06/28 07:12:50;;;;;;;5.10;4.63;;;33.90;72.30;;;;;;5072228;28;20186;-73
2021/06/28 07:15:17;;;;;;;6.70;5.27;;;32.50;73.90;;;;;;5072605;28;20926;-73
2021/06/28 07:17:42;;;;;;;5.30;4.90;;;33.70;71.50;;;;;;5072288;28;20479;-74
2021/06/28 07:20:23;;;;;;;5.40;4.70;;;32.40;75.40;;;;;;5072664;28;21012;-75
2021/06/28 07:22:58;;;;;;;4.50;4.20;;;31.90;75.90;;;;;;5237099;23;20223;-74
2021/06/28 07:25:24;;;;;;;5.80;5.30;;;30.60;78.80;;;;;;5035407;28;20413;-75
2021/06/28 07:27:51;;;;;;;7.23;5.27;;;32.00;75.10;;;;;;5036001;28;20452;-75
2021/06/28 07:30:19;;;;;;;5.70;5.20;;;32.60;73.20;;;;;;5035841;28;20205;-75
2021/06/28 07:32:45;;;;;;;5.33;4.93;;;32.90;73.90;;;;;;5038804;28;20430;-75
2021/06/28 07:35:11;;;;;;;5.30;4.90;;;31.50;76.70;;;;;;5033279;28;20413;-75
2021/06/28 07:37:37;;;;;;;5.17;4.73;;;32.20;77.10;;;;;;5033597;28;20189;-75
2021/06/28 07:40:05;;;;;;;5.70;5.20;;;33.20;74.60;;;;;;5033597;28;20413;-75
2021/06/28 07:42:31;;;;;;;5.63;5.23;;;33.50;70.90;;;;;;5030360;28;20477;-75
2021/06/28 07:44:56;;;;;;;5.27;4.87;;;34.50;67.60;;;;;;5031857;28;20414;-75
2021/06/28 07:47:22;;;;;;;8.80;4.40;;;34.20;64.40;;;;;;5032466;28;20179;-75
2021/06/28 07:49:47;;;;;;;5.10;4.60;;;34.60;64.90;;;;;;5033184;28;20250;-75
2021/06/28 07:52:13;;;;;;;5.67;5.10;;;34.00;66.70;;;;;;5028477;28;20594;-76
2021/06/28 07:54:41;;;;;;;5.50;5.00;;;32.40;70.30;;;;;;5019276;28;20172;-75
2021/06/28 07:57:07;;;;;;;5.97;5.37;;;32.80;70.60;;;;;;5053347;28;20244;-75
2021/06/28 07:59:34;;;;;;;6.67;6.07;;;32.20;70.30;;;;;;5040485;28;20437;-74
2021/06/28 08:01:59;;;;;;;6.30;5.40;;;33.50;69.20;;;;;;5029216;28;20222;-74
2021/06/28 08:04:27;;;;;;;6.73;6.23;;;32.60;67.90;;;;;;5033308;28;20813;-77
2021/06/28 08:06:56;;;;;;;7.70;7.00;;;33.90;65.50;;;;;;5013034;28;20722;-74
2021/06/28 08:09:22;;;;;;;7.40;4.50;;;34.80;64.50;;;;;;5012202;28;20962;-73
2021/06/28 08:11:48;;;;;;;5.40;4.80;;;34.00;65.40;;;;;;5018484;28;20446;-74
2021/06/28 08:14:15;;;;;;;4.67;4.30;;;33.70;63.20;;;;;;5026279;28;20250;-74
2021/06/28 08:16:41;;;;;;;4.37;4.07;;;35.00;58.50;;;;;;5023323;28;20445;-73
2021/06/28 08:19:07;;;;;;;4.40;4.10;;;35.20;57.90;;;;;;5013370;28;20769;-73
2021/06/28 08:21:37;;;;;;;5.90;3.90;;;34.60;59.30;;;;;;5030981;28;20210;-74
2021/06/28 08:24:04;;;;;;;3.83;3.63;;;35.60;57.20;;;;;;5031695;28;20402;-75
2021/06/28 08:26:30;;;;;;;4.40;4.00;;;36.10;55.80;;;;;;5032203;28;20422;-74
2021/06/28 08:28:56;;;;;;;15.40;14.10;;;33.50;59.40;;;;;;5031721;28;20406;-73
2021/06/28 08:31:22;;;;;;;5.20;4.80;;;33.00;62.20;;;;;;5031423;28;20191;-75
2021/06/28 08:33:47;;;;;;;4.40;4.10;;;33.60;59.60;;;;;;5031173;28;20801;-72
2021/06/28 08:36:13;;;;;;;4.57;4.07;;;31.60;62.10;;;;;;5031092;28;20168;-75
2021/06/28 08:38:38;;;;;;;4.70;3.97;;;31.70;63.10;;;;;;5031351;28;20195;-74
2021/06/28 08:41:04;;;;;;;4.00;3.70;;;33.60;58.90;;;;;;5031344;28;20167;-73
2021/06/28 08:43:30;;;;;;;4.47;4.10;;;32.80;58.60;;;;;;5031282;28;20269;-74
2021/06/28 08:45:56;;;;;;;3.93;3.63;;;33.70;58.10;;;;;;5031421;28;20178;-71
2021/06/28 08:48:21;;;;;;;4.10;3.80;;;33.70;58.40;;;;;;5013305;28;20171;-71
2021/06/28 08:50:47;;;;;;;3.47;3.17;;;34.00;56.40;;;;;;5031099;28;20421;-71
2021/06/28 08:53:14;;;;;;;3.87;3.50;;;33.90;57.10;;;;;;5031073;28;20202;-73
2021/06/28 08:55:40;;;;;;;3.40;3.20;;;34.40;56.10;;;;;;5031170;28;20170;-72
2021/06/28 08:58:06;;;;;;;4.73;3.57;;;34.30;54.80;;;;;;5031271;28;20536;-72
2021/06/28 09:00:32;;;;;;;4.30;4.00;;;33.50;55.90;;;;;;5030966;28;20182;-73
2021/06/28 09:03:00;;;;;;;4.20;3.80;;;33.80;56.30;;;;;;5030352;28;20430;-72
2021/06/28 09:05:27;;;;;;;4.10;3.80;;;33.40;56.50;;;;;;5029486;28;20422;-73
2021/06/28 09:08:09;;;;;;;3.90;3.33;;;33.20;57.80;;;;;;5031187;28;20456;-73
2021/06/28 09:10:40;;;;;;;4.03;3.70;;;32.10;59.30;;;;;;5018034;28;20423;-73
2021/06/28 09:13:05;;;;;;;3.83;3.43;;;32.00;59.60;;;;;;5011118;28;20521;-72
2021/06/28 09:15:36;;;;;;;4.33;3.93;;;30.60;62.20;;;;;;5011208;28;20490;-74
2021/06/28 09:18:18;;;;;;;3.87;3.57;;;30.90;62.10;;;;;;5011388;28;20242;-74
2021/06/28 09:20:44;;;;;;;3.77;3.43;;;31.10;59.80;;;;;;5029738;28;20405;-73
2021/06/28 09:23:25;;;;;;;3.60;3.40;;;31.30;61.60;;;;;;5030680;28;20461;-74
2021/06/28 09:25:54;;;;;;;3.63;3.33;;;32.60;57.30;;;;;;5029153;28;20203;-74
2021/06/28 09:28:35;;;;;;;3.50;3.20;;;33.40;57.60;;;;;;5022056;28;20422;-76
2021/06/28 09:31:00;;;;;;;17.73;16.20;;;33.60;56.30;;;;;;5021861;28;20814;-73
2021/06/28 09:33:26;;;;;;;3.77;3.50;;;32.10;58.80;;;;;;5023169;28;20505;-74
2021/06/28 09:35:51;;;;;;;5.03;4.63;;;31.40;61.60;;;;;;5026683;28;20275;-74
2021/06/28 09:38:40;;;;;;;5.20;4.80;;;31.00;62.20;;;;;;5026618;28;20679;-74
2021/06/28 09:41:24;;;;;;;4.23;3.67;;;31.60;58.60;;;;;;5021641;28;20188;-76
2021/06/28 09:43:59;;;;;;;4.40;4.07;;;31.40;58.60;;;;;;5035453;28;20493;-77
2021/06/28 09:46:24;;;;;;;7.17;6.67;;;30.90;60.90;;;;;;5035449;28;20937;-75
2021/06/28 09:48:53;;;;;;;4.43;4.10;;;31.80;59.90;;;;;;5035035;28;20410;-75
2021/06/28 09:51:36;;;;;;;4.10;3.80;;;32.30;59.30;;;;;;5035187;28;20210;-73
2021/06/28 09:54:08;;;;;;;3.67;3.37;;;32.30;57.50;;;;;;5036738;28;20418;-72
2021/06/28 09:56:38;;;;;;;7.87;7.23;;;32.10;57.70;;;;;;5038792;28;20452;-73
2021/06/28 09:59:32;;;;;;;5.13;4.73;;;32.20;59.20;;;;;;5039144;28;20438;-75
2021/06/28 10:02:15;;;;;;;3.50;3.17;;;32.80;58.00;;;;;;5037148;28;20438;-73
2021/06/28 10:04:58;;;;;;;3.80;3.60;;;33.20;57.50;;;;;;5034369;28;20398;-74
2021/06/28 10:07:30;;;;;;;4.73;3.20;;;34.20;54.80;;;;;;5018242;28;20489;-73
2021/06/28 10:10:14;;;;;;;3.67;3.47;;;33.40;55.90;;;;;;5034198;28;20402;-73
2021/06/28 10:12:43;;;;;;;4.53;4.17;;;33.20;55.20;;;;;;5033669;28;20432;-73
2021/06/28 10:15:12;;;;;;;4.50;4.10;;;33.30;54.70;;;;;;5033875;28;20407;-76
2021/06/28 10:17:39;;;;;;;3.77;3.47;;;33.20;55.00;;;;;;5033526;28;20540;-73
2021/06/28 10:20:07;;;;;;;4.43;4.00;;;32.60;55.40;;;;;;5034018;28;20429;-74
2021/06/28 10:22:34;;;;;;;5.90;4.37;;;32.40;55.50;;;;;;5033326;28;20508;-74
2021/06/28 10:25:00;;;;;;;4.73;4.30;;;32.60;55.90;;;;;;5033750;28;20406;-73
2021/06/28 10:27:27;;;;;;;3.83;3.53;;;32.00;56.10;;;;;;5033866;28;20464;-73
2021/06/28 10:29:53;;;;;;;3.63;3.43;;;32.10;56.50;;;;;;5033877;28;20442;-76
2021/06/28 10:32:20;;;;;;;3.70;3.50;;;31.90;55.70;;;;;;5033769;28;20445;-76
2021/06/28 10:34:53;;;;;;;4.60;4.20;;;31.50;55.40;;;;;;5033907;28;20667;-76
2021/06/28 10:37:36;;;;;;;4.67;4.27;;;31.60;55.70;;;;;;5033680;28;20832;-75
2021/06/28 10:40:19;;;;;;;4.17;3.80;;;31.20;56.80;;;;;;5012878;28;21001;-74
2021/06/28 10:42:49;;;;;;;5.40;5.10;;;31.10;57.30;;;;;;5012970;28;20782;-74
2021/06/28 10:45:16;;;;;;;4.00;3.70;;;31.10;56.60;;;;;;5025621;28;20830;-75
2021/06/28 10:48:07;;;;;;;4.10;3.80;;;31.00;57.00;;;;;;5033340;28;20441;-74
2021/06/28 10:50:51;;;;;;;4.70;4.30;;;31.30;56.00;;;;;;5033344;28;20464;-75
2021/06/28 10:53:32;;;;;;;4.17;3.77;;;30.70;57.10;;;;;;5033309;28;20476;-74
2021/06/28 10:55:58;;;;;;;3.90;3.60;;;30.80;57.60;;;;;;5033085;28;20941;-74
2021/06/28 10:58:26;;;;;;;4.20;3.90;;;30.50;55.80;;;;;;5033069;28;20458;-74
2021/06/28 11:01:00;;;;;;;4.37;4.07;;;30.60;55.80;;;;;;5032860;28;20394;-74
2021/06/28 11:03:34;;;;;;;4.13;3.83;;;30.30;57.20;;;;;;5033496;28;20487;-74
2021/06/28 11:06:21;;;;;;;4.27;3.83;;;30.50;56.70;;;;;;5033160;28;20401;-75
2021/06/28 11:09:09;;;;;;;4.50;3.43;;;30.60;57.10;;;;;;5032850;28;20918;-74
2021/06/28 11:11:43;;;;;;;3.10;2.90;;;30.60;56.50;;;;;;5033371;28;20429;-74
2021/06/28 11:14:30;;;;;;;3.47;3.17;;;30.80;55.40;;;;;;5032880;28;20826;-74
2021/06/28 11:17:11;;;;;;;3.17;2.97;;;30.90;56.40;;;;;;5031993;28;20518;-74
2021/06/28 11:19:45;;;;;;;3.30;3.00;;;31.10;54.40;;;;;;5032355;28;20560;-74
2021/06/28 11:22:49;;;;;;;3.67;3.43;;;30.70;55.20;;;;;;5032201;28;20450;-72
2021/06/28 11:25:36;;;;;;;3.40;3.20;;;30.70;56.50;;;;;;5032756;28;20406;-75
2021/06/28 11:28:01;;;;;;;3.83;3.53;;;30.80;55.10;;;;;;5032242;28;20406;-73
2021/06/28 11:30:37;;;;;;;3.30;2.97;;;31.10;54.40;;;;;;5031955;28;20484;-74
2021/06/28 11:33:04;;;;;;;3.13;2.93;;;31.10;54.00;;;;;;5032438;28;20218;-74
2021/06/28 11:35:40;;;;;;;4.13;3.30;;;31.20;55.10;;;;;;5032448;28;20410;-74
2021/06/28 11:38:23;;;;;;;3.47;3.17;;;31.20;55.50;;;;;;5032061;28;20547;-73
2021/06/28 11:40:55;;;;;;;5.00;2.93;;;30.90;55.10;;;;;;5032151;28;20444;-72
2021/06/28 11:43:35;;;;;;;3.20;2.90;;;31.20;55.10;;;;;;5032962;28;20395;-74
2021/06/28 11:46:01;;;;;;;3.47;3.27;;;31.20;53.80;;;;;;5032154;28;20406;-73
2021/06/28 11:48:41;;;;;;;2.80;2.60;;;31.10;55.20;;;;;;5031903;28;20410;-73
2021/06/28 11:51:17;;;;;;;3.70;3.23;;;31.40;55.30;;;;;;5031743;28;20640;-73
2021/06/28 11:53:49;;;;;;;3.20;2.90;;;30.80;55.30;;;;;;5049857;28;20412;-72
2021/06/28 11:56:23;;;;;;;3.60;3.30;;;30.80;55.80;;;;;;5051315;28;20416;-72
2021/06/28 11:58:58;;;;;;;3.73;3.43;;;30.80;56.40;;;;;;5023535;28;20583;-73
2021/06/28 12:01:29;;;;;;;3.00;2.80;;;30.80;57.00;;;;;;5051327;28;20781;-73
2021/06/28 12:03:55;;;;;;;3.60;3.30;;;30.80;56.00;;;;;;5049766;28;20397;-73
2021/06/28 12:06:26;;;;;;;3.00;2.80;;;30.70;55.60;;;;;;5031129;28;20410;-73
2021/06/28 12:09:07;;;;;;;5.10;4.70;;;30.90;56.70;;;;;;5031486;28;20182;-74
2021/06/28 12:11:34;;;;;;;3.87;3.57;;;31.20;56.10;;;;;;5031680;28;20442;-74
2021/06/28 12:14:00;;;;;;;3.47;3.27;;;31.00;56.00;;;;;;5026517;28;20764;-73
2021/06/28 12:16:27;;;;;;;3.70;3.43;;;31.10;54.90;;;;;;5031096;28;20454;-72
2021/06/28 12:19:10;;;;;;;3.30;3.00;;;31.60;54.40;;;;;;5040120;28;20170;-74
2021/06/28 12:21:38;;;;;;;3.67;3.37;;;31.70;54.00;;;;;;5031102;28;20517;-73
2021/06/28 12:24:10;;;;;;;3.70;3.50;;;31.80;54.80;;;;;;5031657;28;20425;-73
2021/06/28 12:26:37;;;;;;;3.47;3.23;;;31.80;53.60;;;;;;5031448;28;20403;-73
2021/06/28 12:29:26;;;;;;;3.30;3.00;;;32.00;52.10;;;;;;5031536;28;20406;-73
2021/06/28 12:31:59;;;;;;;4.80;4.30;;;31.30;52.70;;;;;;5031068;28;20636;-73
2021/06/28 12:34:24;;;;;;;5.93;5.27;;;31.70;53.10;;;;;;5031120;28;20445;-73
2021/06/28 12:36:51;;;;;;;4.00;3.57;;;32.00;53.40;;;;;;5026557;28;20545;-73
2021/06/28 12:39:24;;;;;;;3.10;2.90;;;31.40;53.30;;;;;;5022190;28;20172;-74
2021/06/28 12:41:50;;;;;;;3.60;2.70;;;31.70;52.40;;;;;;5010982;28;20490;-73
2021/06/28 12:44:15;;;;;;;3.37;3.17;;;31.90;51.70;;;;;;5018320;28;20434;-73
2021/06/28 12:46:43;;;;;;;3.00;2.70;;;31.90;51.80;;;;;;5017317;28;20961;-74
2021/06/28 12:49:09;;;;;;;3.83;2.60;;;31.90;51.30;;;;;;5031259;28;20659;-73
2021/06/28 12:51:35;;;;;;;3.53;3.33;;;31.70;51.10;;;;;;5030896;28;20441;-74